Time;durP1;ratioP1;P1;durP2;ratioP2;P2;SDS_P1;SDS_P2;PMS_P1;PMS_P2;Temp;Humidity;BMP_temperature;BMP_pressure;BME280_temperature;BME280_humidity;BME280_pressure;Samples;Min_cycle;Max_cycle;Signal;HPM_P1;HPM_P2
2021/06/18 00:00:39;;;;;;;5.93;5.20;;;;;;;;;;5048223;28;20622;-61
2021/06/18 00:03:05;;;;;;;6.40;5.80;;;;;;;;;;5050261;28;20206;-62
2021/06/18 00:05:30;;;;;;;5.95;5.13;;;;;;;;;;5041239;28;20202;-60
2021/06/18 00:07:55;;;;;;;5.25;4.75;;;;;;;;;;5048718;28;20565;-61
2021/06/18 00:10:23;;;;;;;5.88;5.15;;;;;;;;;;5036167;28;20198;-62
2021/06/18 00:12:49;;;;;;;5.43;5.03;;;;;;;;;;5051534;28;20201;-61
2021/06/18 00:15:15;;;;;;;5.60;5.07;;;;;;;;;;5048045;28;20206;-61
2021/06/18 00:17:40;;;;;;;6.78;5.88;;;;;;;;;;5042894;28;20189;-61
2021/06/18 00:20:08;;;;;;;5.50;5.00;;;;;;;;;;5046053;28;20186;-61
2021/06/18 00:22:33;;;;;;;5.90;5.30;;;;;;;;;;5044339;28;20209;-61
2021/06/18 00:24:58;;;;;;;7.47;5.00;;;;;;;;;;5045444;28;20194;-61
2021/06/18 00:27:25;;;;;;;7.45;5.43;;;;;;;;;;5043324;28;20189;-61
2021/06/18 00:29:50;;;;;;;5.20;4.70;;;;;;;;;;5045618;28;20271;-61
2021/06/18 00:32:16;;;;;;;5.68;5.07;;;;;;;;;;5046046;28;20201;-62
2021/06/18 00:34:41;;;;;;;5.55;5.03;;;;;;;;;;5030601;28;20263;-61
2021/06/18 00:37:06;;;;;;;5.95;5.00;;;;;;;;;;5050717;28;20185;-62
2021/06/18 00:39:32;;;;;;;6.32;5.72;;;;;;;;;;5047847;28;20186;-60
2021/06/18 00:41:57;;;;;;;5.72;5.22;;;;;;;;;;5041327;28;20190;-61
2021/06/18 00:44:22;;;;;;;6.45;5.45;;;;;;;;;;5048446;28;20289;-61
2021/06/18 00:46:49;;;;;;;8.23;5.97;;;;;;;;;;5049720;28;20217;-61
2021/06/18 00:49:15;;;;;;;5.72;5.22;;;;;;;;;;5041240;28;20214;-60
2021/06/18 00:51:41;;;;;;;6.45;5.70;;;;;;;;;;5037355;28;20183;-61
2021/06/18 00:54:06;;;;;;;8.20;5.95;;;;;;;;;;5046711;28;20205;-61
2021/06/18 00:56:33;;;;;;;5.82;5.32;;;;;;;;;;5048782;28;20232;-60
2021/06/18 00:58:59;;;;;;;8.73;5.68;;;;;;;;;;5047980;28;20555;-62
2021/06/18 01:01:24;;;;;;;6.28;5.72;;;;;;;;;;5040411;28;20200;-61
2021/06/18 01:03:49;;;;;;;7.53;5.68;;;;;;;;;;5046383;28;20894;-61
2021/06/18 01:06:22;;;;;;;7.05;5.60;;;;;;;;;;5029854;28;20701;-61
2021/06/18 01:08:55;;;;;;;6.57;5.55;;;;;;;;;;5038442;28;20558;-60
2021/06/18 01:11:34;;;;;;;6.97;5.70;;;;;;;;;;5046801;28;20194;-62
2021/06/18 01:14:09;;;;;;;6.55;5.22;;;;;;;;;;5042145;28;20570;-61
2021/06/18 01:16:51;;;;;;;5.60;5.10;;;;;;;;;;5026527;28;20621;-61
2021/06/18 01:19:47;;;;;;;6.05;5.47;;;;;;;;;;5037700;28;20198;-61
2021/06/18 01:22:16;;;;;;;8.52;5.78;;;;;;;;;;5039700;28;20190;-61
2021/06/18 01:25:10;;;;;;;5.80;5.10;;;;;;;;;;5041721;28;20221;-60
2021/06/18 01:27:52;;;;;;;6.10;5.18;;;;;;;;;;5034742;28;20221;-61
2021/06/18 01:30:26;;;;;;;5.68;4.97;;;;;;;;;;5050652;28;20360;-59
2021/06/18 01:33:08;;;;;;;5.57;5.07;;;;;;;;;;5056342;28;20228;-60
2021/06/18 01:35:47;;;;;;;7.10;5.35;;;;;;;;;;5049794;28;20209;-61
2021/06/18 01:38:16;;;;;;;6.20;5.40;;;;;;;;;;5054489;28;20208;-60
2021/06/18 01:40:43;;;;;;;7.93;6.22;;;;;;;;;;5052877;28;20220;-61
2021/06/18 01:43:09;;;;;;;7.05;6.43;;;;;;;;;;5047917;28;20182;-61
2021/06/18 01:45:36;;;;;;;7.13;5.97;;;;;;;;;;5053152;28;20276;-61
2021/06/18 01:48:05;;;;;;;6.95;6.25;;;;;;;;;;5051007;28;20186;-61
2021/06/18 01:50:31;;;;;;;6.03;5.50;;;;;;;;;;5049220;28;20206;-61
2021/06/18 01:53:05;;;;;;;6.35;5.85;;;;;;;;;;5046423;28;20178;-61
2021/06/18 01:55:33;;;;;;;6.60;6.00;;;;;;;;;;5045956;28;20209;-61
2021/06/18 01:58:01;;;;;;;8.48;6.43;;;;;;;;;;5051235;28;20181;-61
2021/06/18 02:00:28;;;;;;;9.85;6.78;;;;;;;;;;5046763;28;20178;-62
2021/06/18 02:02:57;;;;;;;6.63;5.93;;;;;;;;;;5046271;28;20279;-61
2021/06/18 02:05:23;;;;;;;8.15;6.55;;;;;;;;;;5033123;28;20217;-62
2021/06/18 02:07:53;;;;;;;6.40;5.80;;;;;;;;;;5050224;28;20186;-60
2021/06/18 02:10:19;;;;;;;7.53;6.25;;;;;;;;;;5033173;28;20359;-61
2021/06/18 02:12:47;;;;;;;7.07;5.22;;;;;;;;;;5049987;28;20666;-61
2021/06/18 02:15:13;;;;;;;7.80;5.90;;;;;;;;;;5047435;28;20213;-62
2021/06/18 02:17:40;;;;;;;8.85;5.93;;;;;;;;;;5048049;28;20669;-61
2021/06/18 02:20:08;;;;;;;7.28;6.53;;;;;;;;;;5050281;28;20668;-61
2021/06/18 02:22:35;;;;;;;10.02;5.97;;;;;;;;;;5051113;28;20262;-61
2021/06/18 02:25:03;;;;;;;9.38;5.82;;;;;;;;;;5030862;28;20696;-61
2021/06/18 02:27:29;;;;;;;11.48;6.40;;;;;;;;;;5046934;28;20204;-61
2021/06/18 02:29:54;;;;;;;9.05;8.15;;;;;;;;;;5023428;28;20302;-62
2021/06/18 02:32:20;;;;;;;8.45;7.07;;;;;;;;;;5053163;28;20187;-62
2021/06/18 02:34:46;;;;;;;8.40;7.50;;;;;;;;;;5048511;28;20209;-61
2021/06/18 02:37:12;;;;;;;9.77;5.63;;;;;;;;;;5044156;28;20199;-62
2021/06/18 02:39:39;;;;;;;12.48;6.55;;;;;;;;;;5047721;28;20312;-60
2021/06/18 02:42:05;;;;;;;7.55;6.72;;;;;;;;;;5040762;28;20274;-60
2021/06/18 02:44:30;;;;;;;17.17;7.25;;;;;;;;;;5054448;28;20217;-61
2021/06/18 02:47:04;;;;;;;10.57;7.78;;;;;;;;;;5051048;28;20276;-61
2021/06/18 02:49:53;;;;;;;9.38;8.52;;;;;;;;;;5021015;28;20208;-60
2021/06/18 02:52:43;;;;;;;10.70;9.02;;;;;;;;;;5044262;28;20654;-62
2021/06/18 02:55:14;;;;;;;9.13;8.30;;;;;;;;;;5043419;28;20720;-61
2021/06/18 02:57:54;;;;;;;14.68;10.05;;;;;;;;;;5047973;28;20189;-62
2021/06/18 03:00:21;;;;;;;10.60;9.60;;;;;;;;;;5034468;28;20202;-61
2021/06/18 03:02:59;;;;;;;13.65;10.00;;;;;;;;;;5053721;28;20197;-62
2021/06/18 03:05:25;;;;;;;11.07;9.75;;;;;;;;;;5051207;28;20288;-62
2021/06/18 03:08:03;;;;;;;10.60;8.77;;;;;;;;;;5048447;28;20282;-62
2021/06/18 03:10:35;;;;;;;14.02;10.18;;;;;;;;;;5027068;28;20236;-62
2021/06/18 03:13:06;;;;;;;11.20;9.48;;;;;;;;;;5050922;28;20191;-62
2021/06/18 03:15:34;;;;;;;9.93;8.95;;;;;;;;;;5049098;28;20208;-62
2021/06/18 03:18:00;;;;;;;12.77;10.57;;;;;;;;;;5030159;28;20202;-61
2021/06/18 03:20:26;;;;;;;14.13;11.02;;;;;;;;;;5045351;28;20186;-61
2021/06/18 03:22:57;;;;;;;12.38;10.85;;;;;;;;;;5049187;28;20182;-62
2021/06/18 03:25:24;;;;;;;15.48;10.10;;;;;;;;;;5052165;28;20225;-61
2021/06/18 03:27:50;;;;;;;14.57;9.20;;;;;;;;;;5031746;28;20200;-61
2021/06/18 03:30:17;;;;;;;16.17;8.68;;;;;;;;;;5035132;28;20241;-61
2021/06/18 03:32:43;;;;;;;16.02;10.07;;;;;;;;;;5048098;28;20437;-60
2021/06/18 03:35:09;;;;;;;11.55;10.35;;;;;;;;;;5050716;28;20224;-60
2021/06/18 03:37:36;;;;;;;15.00;11.25;;;;;;;;;;5032176;28;20178;-61
2021/06/18 03:40:03;;;;;;;14.07;10.23;;;;;;;;;;5049975;28;20196;-61
2021/06/18 03:42:28;;;;;;;14.17;11.30;;;;;;;;;;5046897;28;20840;-61
2021/06/18 03:44:54;;;;;;;12.97;11.13;;;;;;;;;;5047680;28;20210;-62
2021/06/18 03:47:21;;;;;;;12.47;11.27;;;;;;;;;;5048145;28;20672;-60
2021/06/18 03:49:47;;;;;;;13.17;11.87;;;;;;;;;;5050396;28;20194;-61
2021/06/18 03:52:12;;;;;;;14.23;11.73;;;;;;;;;;5048771;28;20629;-61
2021/06/18 03:54:38;;;;;;;14.97;11.77;;;;;;;;;;5047544;28;20209;-61
2021/06/18 03:57:05;;;;;;;14.67;11.80;;;;;;;;;;5044233;28;20193;-61
2021/06/18 03:59:33;;;;;;;15.03;12.50;;;;;;;;;;5048290;28;20188;-60
2021/06/18 04:02:00;;;;;;;14.07;12.60;;;;;;;;;;5057509;28;20186;-62
2021/06/18 04:04:30;;;;;;;15.53;13.93;;;;;;;;;;5045258;28;20688;-61
2021/06/18 04:06:56;;;;;;;15.60;13.97;;;;;;;;;;5045588;28;20198;-61
2021/06/18 04:09:21;;;;;;;14.83;13.43;;;;;;;;;;5046123;28;20209;-62
2021/06/18 04:11:47;;;;;;;14.53;13.23;;;;;;;;;;5047704;28;20960;-62
2021/06/18 04:14:13;;;;;;;17.57;13.80;;;;;;;;;;5043525;28;20210;-61
2021/06/18 04:16:39;;;;;;;16.70;13.63;;;;;;;;;;5047516;28;20182;-62
2021/06/18 04:19:08;;;;;;;14.03;12.63;;;;;;;;;;5045991;28;20191;-61
2021/06/18 04:21:35;;;;;;;15.18;12.45;;;;;;;;;;5048640;28;20275;-61
2021/06/18 04:24:01;;;;;;;18.33;11.27;;;;;;;;;;5044966;28;20221;-61
2021/06/18 04:26:26;;;;;;;13.23;11.85;;;;;;;;;;5029472;28;20186;-61
2021/06/18 04:28:53;;;;;;;12.65;11.45;;;;;;;;;;5041883;28;20189;-61
2021/06/18 04:31:18;;;;;;;14.48;10.80;;;;;;;;;;5043552;28;20193;-61
2021/06/18 04:33:43;;;;;;;14.98;10.63;;;;;;;;;;5030116;28;20197;-61
2021/06/18 04:36:09;;;;;;;12.63;10.65;;;;;;;;;;5047941;28;20186;-61
2021/06/18 04:38:38;;;;;;;12.93;9.93;;;;;;;;;;5025418;28;20680;-61
2021/06/18 04:41:03;;;;;;;13.63;10.68;;;;;;;;;;5041782;28;20613;-61
2021/06/18 04:43:29;;;;;;;13.50;10.70;;;;;;;;;;5044862;28;20189;-61
2021/06/18 04:45:54;;;;;;;12.95;10.30;;;;;;;;;;5048969;28;20193;-61
2021/06/18 04:48:20;;;;;;;14.15;10.63;;;;;;;;;;5027651;28;20225;-62
2021/06/18 04:50:45;;;;;;;13.55;11.57;;;;;;;;;;5026240;28;20202;-61
2021/06/18 04:53:11;;;;;;;12.60;11.45;;;;;;;;;;5045725;28;20201;-61
2021/06/18 04:55:38;;;;;;;13.27;11.88;;;;;;;;;;5040331;28;20202;-61
2021/06/18 04:58:04;;;;;;;13.32;12.00;;;;;;;;;;5043607;28;20189;-61
2021/06/18 05:00:29;;;;;;;14.13;12.65;;;;;;;;;;5042412;28;20190;-60
2021/06/18 05:02:55;;;;;;;13.43;11.25;;;;;;;;;;5048030;28;20200;-60
2021/06/18 05:05:20;;;;;;;14.85;13.05;;;;;;;;;;5045143;28;20810;-61
2021/06/18 05:07:46;;;;;;;14.85;13.45;;;;;;;;;;5049921;28;20568;-61
2021/06/18 05:10:12;;;;;;;17.33;14.18;;;;;;;;;;5047140;28;20673;-62
2021/06/18 05:12:37;;;;;;;14.90;13.50;;;;;;;;;;5049911;28;20185;-60
2021/06/18 05:15:04;;;;;;;13.82;12.45;;;;;;;;;;5028116;28;20245;-61
2021/06/18 05:17:29;;;;;;;15.00;12.23;;;;;;;;;;5031423;28;20185;-62
2021/06/18 05:19:54;;;;;;;13.77;12.18;;;;;;;;;;5047812;28;20530;-62
2021/06/18 05:22:20;;;;;;;16.67;13.43;;;;;;;;;;5048908;28;20746;-62
2021/06/18 05:24:45;;;;;;;14.77;13.27;;;;;;;;;;5046913;28;20233;-61
2021/06/18 05:27:10;;;;;;;14.95;13.40;;;;;;;;;;5046109;28;20186;-61
2021/06/18 05:29:36;;;;;;;15.00;13.38;;;;;;;;;;5051088;28;20585;-60
2021/06/18 05:32:03;;;;;;;15.43;13.82;;;;;;;;;;5051113;28;20847;-61
2021/06/18 05:34:28;;;;;;;14.70;13.25;;;;;;;;;;5041877;28;20206;-61
2021/06/18 05:36:53;;;;;;;14.90;13.10;;;;;;;;;;5047087;28;20235;-61
2021/06/18 05:39:19;;;;;;;15.98;14.10;;;;;;;;;;5043450;28;20174;-61
2021/06/18 05:41:44;;;;;;;16.02;14.45;;;;;;;;;;5026355;28;20717;-60
2021/06/18 05:44:09;;;;;;;16.63;14.00;;;;;;;;;;5043093;28;20671;-61
2021/06/18 05:46:35;;;;;;;19.38;15.02;;;;;;;;;;5044243;28;20585;-62
2021/06/18 05:49:01;;;;;;;15.75;14.27;;;;;;;;;;5040688;28;20182;-61
2021/06/18 05:51:26;;;;;;;16.25;14.55;;;;;;;;;;5042167;28;20598;-60
2021/06/18 05:53:53;;;;;;;17.30;15.73;;;;;;;;;;5032213;28;20233;-62
2021/06/18 05:56:18;;;;;;;15.88;14.32;;;;;;;;;;5038128;28;20217;-61
2021/06/18 05:58:44;;;;;;;16.63;14.93;;;;;;;;;;5044170;28;20211;-61
2021/06/18 06:01:09;;;;;;;15.85;14.23;;;;;;;;;;5044144;28;20204;-61
2021/06/18 06:03:34;;;;;;;17.50;14.85;;;;;;;;;;5051526;28;20197;-61
2021/06/18 06:06:00;;;;;;;15.75;14.00;;;;;;;;;;5039892;28;20193;-61
2021/06/18 06:08:26;;;;;;;21.55;13.75;;;;;;;;;;5041407;28;20681;-61
2021/06/18 06:10:52;;;;;;;15.30;13.23;;;;;;;;;;5047857;28;20627;-60
2021/06/18 06:13:19;;;;;;;14.50;13.00;;;;;;;;;;5027412;28;20218;-61
2021/06/18 06:15:46;;;;;;;14.73;13.23;;;;;;;;;;5031761;28;20724;-61
2021/06/18 06:18:11;;;;;;;20.02;14.32;;;;;;;;;;5044494;28;20185;-61
2021/06/18 06:20:37;;;;;;;14.07;12.73;;;;;;;;;;5052646;28;20355;-61
2021/06/18 06:23:02;;;;;;;14.15;12.57;;;;;;;;;;5051017;28;20179;-60
2021/06/18 06:25:27;;;;;;;14.02;12.73;;;;;;;;;;5050590;28;20634;-60
2021/06/18 06:27:52;;;;;;;15.30;12.85;;;;;;;;;;5053007;28;20213;-62
2021/06/18 06:30:18;;;;;;;15.23;12.38;;;;;;;;;;5049839;28;20212;-61
2021/06/18 06:32:43;;;;;;;11.35;10.15;;;;;;;;;;5017197;28;20597;-60
2021/06/18 06:35:09;;;;;;;15.25;13.77;;;;;;;;;;5050025;28;20592;-62
2021/06/18 06:37:35;;;;;;;14.57;13.20;;;;;;;;;;5053677;28;20969;-62
2021/06/18 06:40:00;;;;;;;15.25;13.80;;;;;;;;;;5033364;28;20616;-60
2021/06/18 06:42:25;;;;;;;14.98;13.43;;;;;;;;;;5047730;28;20246;-62
2021/06/18 06:44:50;;;;;;;15.02;13.45;;;;;;;;;;5047288;28;20682;-60
2021/06/18 06:47:16;;;;;;;14.48;12.45;;;;;;;;;;5049782;28;20199;-60
2021/06/18 06:49:41;;;;;;;15.63;12.25;;;;;;;;;;5028656;28;20205;-61
2021/06/18 06:52:07;;;;;;;13.48;11.25;;;;;;;;;;5046485;28;20639;-62
2021/06/18 06:54:32;;;;;;;11.63;10.48;;;;;;;;;;5042086;28;20218;-62
2021/06/18 06:56:58;;;;;;;14.45;9.95;;;;;;;;;;5052800;28;20190;-62
2021/06/18 06:59:23;;;;;;;13.38;10.77;;;;;;;;;;5045421;28;20185;-62
2021/06/18 07:01:48;;;;;;;11.10;10.07;;;;;;;;;;5050203;28;20185;-62
2021/06/18 07:04:14;;;;;;;10.63;9.52;;;;;;;;;;5044966;28;20214;-61
2021/06/18 07:06:39;;;;;;;8.65;7.65;;;;;;;;;;5026833;28;20551;-61
2021/06/18 07:09:08;;;;;;;9.68;7.70;;;;;;;;;;5038638;28;20561;-61
2021/06/18 07:11:33;;;;;;;11.10;8.32;;;;;;;;;;5050586;28;20201;-62
2021/06/18 07:13:59;;;;;;;8.95;7.68;;;;;;;;;;5024948;28;20222;-61
2021/06/18 07:16:24;;;;;;;10.35;7.78;;;;;;;;;;5043986;28;20194;-61
2021/06/18 07:18:50;;;;;;;10.88;7.00;;;;;;;;;;5041805;28;20208;-62
2021/06/18 07:21:16;;;;;;;10.50;6.63;;;;;;;;;;5045330;28;20182;-62
2021/06/18 07:23:41;;;;;;;7.68;5.78;;;;;;;;;;5039519;28;20174;-58
2021/06/18 07:26:06;;;;;;;7.88;6.72;;;;;;;;;;5047628;28;20189;-61
2021/06/18 07:28:32;;;;;;;7.00;6.32;;;;;;;;;;5042592;28;20729;-61
2021/06/18 07:30:57;;;;;;;7.88;7.10;;;;;;;;;;5054818;28;20206;-60
2021/06/18 07:33:23;;;;;;;13.85;6.75;;;;;;;;;;5032097;28;20723;-62
2021/06/18 07:35:48;;;;;;;7.53;6.03;;;;;;;;;;5056616;28;20190;-59
2021/06/18 07:38:13;;;;;;;8.57;6.45;;;;;;;;;;5053050;28;20205;-61
2021/06/18 07:40:39;;;;;;;7.95;6.72;;;;;;;;;;5047428;28;20197;-61
2021/06/18 07:43:04;;;;;;;10.60;9.70;;;;;;;;;;5058712;28;20209;-61
2021/06/18 07:45:30;;;;;;;8.57;7.88;;;;;;;;;;5054073;28;20209;-60
2021/06/18 07:47:56;;;;;;;11.25;8.68;;;;;;;;;;5050815;28;20193;-61
2021/06/18 07:50:22;;;;;;;10.10;8.77;;;;;;;;;;5049741;28;20201;-61
2021/06/18 07:52:47;;;;;;;8.82;7.97;;;;;;;;;;5050574;28;20200;-60
2021/06/18 07:55:17;;;;;;;10.57;9.55;;;;;;;;;;5042959;28;20272;-61
2021/06/18 07:57:43;;;;;;;9.90;9.10;;;;;;;;;;5037702;28;20205;-61
2021/06/18 08:00:09;;;;;;;9.95;8.77;;;;;;;;;;5042542;28;20190;-62
2021/06/18 08:02:35;;;;;;;10.95;9.90;;;;;;;;;;5023818;28;20193;-62
2021/06/18 08:05:00;;;;;;;12.38;10.02;;;;;;;;;;5047582;28;20213;-62
2021/06/18 08:07:26;;;;;;;11.35;10.43;;;;;;;;;;5052698;28;20193;-62
2021/06/18 08:09:51;;;;;;;12.07;10.82;;;;;;;;;;5046310;28;20245;-61
2021/06/18 08:12:17;;;;;;;12.55;11.55;;;;;;;;;;5044513;28;20828;-61
2021/06/18 08:14:43;;;;;;;12.73;11.70;;;;;;;;;;5050703;28;20205;-61
2021/06/18 08:17:08;;;;;;;13.10;12.18;;;;;;;;;;5058519;28;20219;-62
2021/06/18 08:19:33;;;;;;;13.55;12.65;;;;;;;;;;5049148;28;20186;-63
2021/06/18 08:21:59;;;;;;;14.23;13.23;;;;;;;;;;5049358;28;20192;-61
2021/06/18 08:24:24;;;;;;;13.50;12.30;;;;;;;;;;5046745;28;20201;-61
2021/06/18 08:26:50;;;;;;;13.07;12.15;;;;;;;;;;5031704;28;20440;-62
2021/06/18 08:29:15;;;;;;;15.20;14.18;;;;;;;;;;5049008;28;20221;-62
2021/06/18 08:31:42;;;;;;;15.88;14.70;;;;;;;;;;5048534;28;20287;-63
2021/06/18 08:34:09;;;;;;;15.57;14.65;;;;;;;;;;5057497;28;20217;-62
2021/06/18 08:36:34;;;;;;;13.68;12.75;;;;;;;;;;5054227;28;20192;-62
2021/06/18 08:38:59;;;;;;;14.15;13.05;;;;;;;;;;5045241;28;20209;-61
2021/06/18 08:41:25;;;;;;;14.37;13.40;;;;;;;;;;5050432;28;20255;-63
2021/06/18 08:43:50;;;;;;;13.85;13.05;;;;;;;;;;5051008;28;20209;-62
2021/06/18 08:46:15;;;;;;;15.48;14.57;;;;;;;;;;5033497;28;20189;-63
2021/06/18 08:48:41;;;;;;;15.05;14.18;;;;;;;;;;5049660;28;20881;-64
2021/06/18 08:51:06;;;;;;;15.00;14.00;;;;;;;;;;5015552;28;20213;-62
2021/06/18 08:53:33;;;;;;;15.02;14.15;;;;;;;;;;5032417;28;20186;-62
2021/06/18 08:55:59;;;;;;;15.07;13.90;;;;;;;;;;5050708;28;20193;-62
2021/06/18 08:58:24;;;;;;;14.85;13.75;;;;;;;;;;5046060;28;20689;-63
2021/06/18 09:00:51;;;;;;;14.57;13.47;;;;;;;;;;5049735;28;20361;-62
2021/06/18 09:03:43;;;;;;;16.45;15.55;;;;;;;;;;5043525;28;20571;-63
2021/06/18 09:06:17;;;;;;;15.75;14.57;;;;;;;;;;5092059;22;20699;-63
2021/06/18 09:08:43;;;;;;;13.93;13.02;;;;;;;;;;5086289;28;20188;-62
2021/06/18 09:11:08;;;;;;;12.82;11.98;;;;;;;;;;5091289;28;20208;-62
2021/06/18 09:13:34;;;;;;;11.65;10.85;;;;;;;;;;5092183;28;20655;-62
2021/06/18 09:16:00;;;;;;;11.73;10.63;;;;;;;;;;5075014;28;20212;-60
2021/06/18 09:18:31;;;;;;;10.32;9.63;;;;;;;;;;5069944;28;20185;-61
2021/06/18 09:21:02;;;;;;;11.70;10.85;;;;;;;;;;5069419;28;20200;-61
2021/06/18 09:23:30;;;;;;;10.93;10.23;;;;;;;;;;5068703;28;20191;-61
2021/06/18 09:26:28;;;;;;;10.70;9.73;;;;;;;;;;5079973;28;20291;-63
2021/06/18 09:28:56;;;;;;;9.68;9.02;;;;;;;;;;5068642;28;20410;-64
2021/06/18 09:31:23;;;;;;;9.27;8.63;;;;;;;;;;5064848;28;20342;-62
2021/06/18 09:33:48;;;;;;;9.40;8.63;;;;;;;;;;5072111;28;20552;-61
2021/06/18 09:36:13;;;;;;;8.35;7.75;;;;;;;;;;5069819;28;20200;-62
2021/06/18 09:38:46;;;;;;;7.70;7.10;;;;;;;;;;5068918;28;20184;-65
2021/06/18 09:41:34;;;;;;;8.25;7.57;;;;;;;;;;5069165;28;20180;-62
2021/06/18 09:44:01;;;;;;;7.97;7.35;;;;;;;;;;5066821;28;20204;-61
2021/06/18 09:46:42;;;;;;;8.07;7.40;;;;;;;;;;5062783;28;20212;-62
2021/06/18 09:49:11;;;;;;;7.70;7.03;;;;;;;;;;5055525;28;20328;-64
2021/06/18 09:51:56;;;;;;;7.47;6.82;;;;;;;;;;5055191;28;20223;-62
2021/06/18 09:54:22;;;;;;;7.63;7.00;;;;;;;;;;5083645;28;20699;-62
2021/06/18 09:56:48;;;;;;;7.45;6.82;;;;;;;;;;5052395;28;20189;-63
2021/06/18 09:59:22;;;;;;;6.95;6.43;;;;;;;;;;5055877;28;20674;-61
2021/06/18 10:01:54;;;;;;;9.50;7.85;;;;;;;;;;5052707;28;20204;-63
2021/06/18 10:04:20;;;;;;;8.43;7.68;;;;;;;;;;5063978;28;20639;-62
2021/06/18 10:06:45;;;;;;;8.23;7.53;;;;;;;;;;5076676;28;20251;-63
2021/06/18 10:09:13;;;;;;;8.88;7.82;;;;;;;;;;5073571;28;20180;-63
2021/06/18 10:11:43;;;;;;;9.10;8.27;;;;;;;;;;5070684;28;20195;-61
2021/06/18 10:14:09;;;;;;;10.18;7.80;;;;;;;;;;5064018;28;20286;-64
2021/06/18 10:16:35;;;;;;;8.93;8.25;;;;;;;;;;5063709;28;20553;-63
2021/06/18 10:19:01;;;;;;;9.30;8.50;;;;;;;;;;5070287;28;20195;-63
2021/06/18 10:21:29;;;;;;;8.52;7.93;;;;;;;;;;5067467;28;20192;-63
2021/06/18 10:24:01;;;;;;;8.82;8.02;;;;;;;;;;5071171;28;20181;-63
2021/06/18 10:26:28;;;;;;;8.85;8.05;;;;;;;;;;5065282;28;20213;-63
2021/06/18 10:28:56;;;;;;;7.90;7.20;;;;;;;;;;5069533;28;20189;-63
2021/06/18 10:31:31;;;;;;;7.97;7.28;;;;;;;;;;5064090;28;20300;-62
2021/06/18 10:34:05;;;;;;;8.30;7.63;;;;;;;;;;5050164;28;20196;-63
2021/06/18 10:36:30;;;;;;;8.15;7.47;;;;;;;;;;5059902;28;20235;-64
2021/06/18 10:39:14;;;;;;;7.72;7.07;;;;;;;;;;5063775;28;20601;-63
2021/06/18 10:41:44;;;;;;;7.30;6.68;;;;;;;;;;5069415;28;20181;-61
2021/06/18 10:44:09;;;;;;;8.07;6.40;;;;;;;;;;5065752;28;20704;-62
2021/06/18 10:46:38;;;;;;;6.53;6.13;;;;;;;;;;5064669;28;20212;-62
2021/06/18 10:49:09;;;;;;;5.88;5.35;;;;;;;;;;5070946;28;20192;-62
2021/06/18 10:51:38;;;;;;;5.93;5.43;;;;;;;;;;5069613;28;20268;-63
2021/06/18 10:54:03;;;;;;;5.95;5.32;;;;;;;;;;5067012;28;20560;-63
2021/06/18 10:56:44;;;;;;;7.18;5.15;;;;;;;;;;5072623;28;20199;-60
2021/06/18 10:59:15;;;;;;;6.38;4.97;;;;;;;;;;5049196;28;20230;-62
2021/06/18 11:01:41;;;;;;;6.25;5.75;;;;;;;;;;5047271;28;20809;-62
2021/06/18 11:04:07;;;;;;;5.53;5.05;;;;;;;;;;5062156;28;20239;-64
2021/06/18 11:06:48;;;;;;;5.75;5.10;;;;;;;;;;5062416;28;20213;-63
2021/06/18 11:09:40;;;;;;;5.60;5.10;;;;;;;;;;5053030;28;20280;-62
2021/06/18 11:12:23;;;;;;;5.47;5.03;;;;;;;;;;5057935;28;20676;-62
2021/06/18 11:14:54;;;;;;;5.60;5.10;;;;;;;;;;5075101;28;20287;-65
2021/06/18 11:17:38;;;;;;;5.93;5.07;;;;;;;;;;5059495;28;20189;-64
2021/06/18 11:20:09;;;;;;;6.85;5.32;;;;;;;;;;5065379;28;20724;-64
2021/06/18 11:22:48;;;;;;;5.43;4.93;;;;;;;;;;5066124;28;20198;-66
2021/06/18 11:25:32;;;;;;;6.00;4.53;;;;;;;;;;5068464;28;20204;-65
2021/06/18 11:28:31;;;;;;;6.95;5.50;;;;;;;;;;5071262;28;21212;-64
2021/06/18 11:30:57;;;;;;;5.85;5.13;;;;;;;;;;5062278;28;20214;-64
2021/06/18 11:33:45;;;;;;;5.47;5.00;;;;;;;;;;5067620;28;20189;-63
2021/06/18 11:36:23;;;;;;;5.00;4.60;;;;;;;;;;5067253;28;20197;-65
2021/06/18 11:38:58;;;;;;;4.82;4.45;;;;;;;;;;5064207;28;20188;-67
2021/06/18 11:41:27;;;;;;;5.05;4.57;;;;;;;;;;5061720;28;20523;-64
2021/06/18 11:43:58;;;;;;;6.38;5.07;;;;;;;;;;5045610;28;20668;-65
2021/06/18 11:46:29;;;;;;;5.78;5.28;;;;;;;;;;5038241;28;20692;-64
2021/06/18 11:48:57;;;;;;;5.70;4.72;;;;;;;;;;5065052;28;20189;-62
2021/06/18 11:51:26;;;;;;;5.10;4.60;;;;;;;;;;5073664;28;20568;-62
2021/06/18 11:53:53;;;;;;;5.47;4.97;;;;;;;;;;5048098;28;20255;-63
2021/06/18 11:56:18;;;;;;;5.30;4.90;;;;;;;;;;5061528;28;20245;-61
2021/06/18 11:58:46;;;;;;;4.65;4.25;;;;;;;;;;5060426;28;20649;-62
2021/06/18 12:01:16;;;;;;;5.10;4.60;;;;;;;;;;5070403;28;20216;-62
2021/06/18 12:03:50;;;;;;;5.65;4.32;;;;;;;;;;5066636;28;20185;-63
2021/06/18 12:06:26;;;;;;;5.15;4.47;;;;;;;;;;5067697;28;20253;-61
2021/06/18 12:09:16;;;;;;;5.00;4.35;;;;;;;;;;5064393;28;20261;-61
2021/06/18 12:11:57;;;;;;;4.63;4.25;;;;;;;;;;5060186;28;20185;-62
2021/06/18 12:14:22;;;;;;;6.18;4.50;;;;;;;;;;5061476;28;20185;-62
2021/06/18 12:16:50;;;;;;;4.47;4.18;;;;;;;;;;5068556;28;20243;-61
2021/06/18 12:19:16;;;;;;;6.13;5.28;;;;;;;;;;5067888;28;20198;-61
2021/06/18 12:21:41;;;;;;;8.80;5.00;;;;;;;;;;5069447;28;20187;-61
2021/06/18 12:24:07;;;;;;;6.90;4.70;;;;;;;;;;5067408;28;20614;-62
2021/06/18 12:26:33;;;;;;;5.93;4.30;;;;;;;;;;5069177;28;20177;-63
2021/06/18 12:29:04;;;;;;;5.25;4.28;;;;;;;;;;5066789;28;20242;-63
2021/06/18 12:31:32;;;;;;;5.10;4.60;;;;;;;;;;5067342;28;20200;-61
2021/06/18 12:33:57;;;;;;;4.93;4.53;;;;;;;;;;5063220;28;20223;-62
2021/06/18 12:36:23;;;;;;;6.25;4.30;;;;;;;;;;5063848;28;20708;-62
2021/06/18 12:38:48;;;;;;;4.55;4.15;;;;;;;;;;5069197;28;20193;-60
2021/06/18 12:41:27;;;;;;;4.57;4.18;;;;;;;;;;5067187;28;20177;-62
2021/06/18 12:44:04;;;;;;;5.40;4.40;;;;;;;;;;5066807;28;20300;-62
2021/06/18 12:46:29;;;;;;;4.80;4.18;;;;;;;;;;5063529;28;20227;-62
2021/06/18 12:49:05;;;;;;;5.25;4.72;;;;;;;;;;5064591;28;20659;-61
2021/06/18 12:51:31;;;;;;;4.78;4.38;;;;;;;;;;5064888;28;20201;-60
2021/06/18 12:54:07;;;;;;;8.07;4.30;;;;;;;;;;5071769;28;20188;-61
2021/06/18 12:56:41;;;;;;;6.68;4.45;;;;;;;;;;5049201;28;20246;-62
2021/06/18 12:59:14;;;;;;;5.45;4.35;;;;;;;;;;5062600;28;20204;-61
2021/06/18 13:01:41;;;;;;;5.03;4.28;;;;;;;;;;5058327;28;20589;-60
2021/06/18 13:04:09;;;;;;;4.40;4.00;;;;;;;;;;5044109;28;20183;-62
2021/06/18 13:06:43;;;;;;;4.78;4.45;;;;;;;;;;5052483;28;20194;-65
2021/06/18 13:09:10;;;;;;;5.53;4.30;;;;;;;;;;5054057;28;20213;-62
2021/06/18 13:11:37;;;;;;;4.43;4.03;;;;;;;;;;5052274;28;20605;-64
2021/06/18 13:14:15;;;;;;;7.47;4.30;;;;;;;;;;5057622;28;20185;-63
2021/06/18 13:16:43;;;;;;;5.40;4.43;;;;;;;;;;5057809;28;20570;-63
2021/06/18 13:19:08;;;;;;;5.15;4.30;;;;;;;;;;5063243;28;20699;-62
2021/06/18 13:22:07;;;;;;;4.32;3.92;;;;;;;;;;5075655;28;20189;-63
2021/06/18 13:24:35;;;;;;;7.70;3.90;;;;;;;;;;5072146;28;20205;-63
2021/06/18 13:27:09;;;;;;;4.75;4.10;;;;;;;;;;5073682;28;20196;-62
2021/06/18 13:29:51;;;;;;;5.13;4.20;;;;;;;;;;5053488;28;20295;-62
2021/06/18 13:32:17;;;;;;;4.80;3.85;;;;;;;;;;5065997;28;20197;-62
2021/06/18 13:34:50;;;;;;;5.15;4.65;;;;;;;;;;5069150;28;20197;-62
2021/06/18 13:37:15;;;;;;;5.00;4.43;;;;;;;;;;5070969;28;20201;-61
2021/06/18 13:39:59;;;;;;;4.85;4.45;;;;;;;;;;5067492;28;20215;-63
2021/06/18 13:42:25;;;;;;;6.75;4.47;;;;;;;;;;5069347;28;20235;-62
2021/06/18 13:44:50;;;;;;;4.80;3.95;;;;;;;;;;5070435;28;20221;-61
2021/06/18 13:47:15;;;;;;;4.32;3.92;;;;;;;;;;5067845;28;20272;-62
2021/06/18 13:49:41;;;;;;;5.22;4.07;;;;;;;;;;5068824;28;20205;-61
2021/06/18 13:52:06;;;;;;;5.53;4.28;;;;;;;;;;5066967;28;20208;-62
2021/06/18 13:54:31;;;;;;;5.22;4.75;;;;;;;;;;5066436;28;20207;-62
2021/06/18 13:56:56;;;;;;;4.93;4.50;;;;;;;;;;5070984;28;20217;-63
2021/06/18 13:59:23;;;;;;;10.13;4.18;;;;;;;;;;5056274;28;20598;-64
2021/06/18 14:01:48;;;;;;;4.10;3.70;;;;;;;;;;5070004;28;20232;-61
2021/06/18 14:04:13;;;;;;;5.90;4.43;;;;;;;;;;5069882;28;20208;-64
2021/06/18 14:06:39;;;;;;;4.97;4.47;;;;;;;;;;5067177;28;20189;-65
2021/06/18 14:09:05;;;;;;;5.45;4.10;;;;;;;;;;5046195;28;20708;-62
2021/06/18 14:11:30;;;;;;;5.15;4.60;;;;;;;;;;5069628;28;20209;-62
2021/06/18 14:14:02;;;;;;;6.88;4.60;;;;;;;;;;5069300;28;20552;-63
2021/06/18 14:16:38;;;;;;;5.00;4.60;;;;;;;;;;5068017;28;20252;-62
2021/06/18 14:19:03;;;;;;;5.55;4.43;;;;;;;;;;5042957;28;20216;-63
2021/06/18 14:21:28;;;;;;;4.90;4.50;;;;;;;;;;5069503;28;20220;-62
2021/06/18 14:23:58;;;;;;;5.95;4.70;;;;;;;;;;5061000;28;20196;-62
2021/06/18 14:26:24;;;;;;;5.72;5.03;;;;;;;;;;5062416;28;20213;-62
2021/06/18 14:28:49;;;;;;;6.68;4.60;;;;;;;;;;5061701;28;20246;-62
2021/06/18 14:31:14;;;;;;;5.13;4.32;;;;;;;;;;5044405;28;20304;-63
2021/06/18 14:33:40;;;;;;;5.50;4.60;;;;;;;;;;5062253;28;20193;-62
2021/06/18 14:36:05;;;;;;;5.25;4.70;;;;;;;;;;5070477;28;20730;-61
2021/06/18 14:38:30;;;;;;;6.32;4.65;;;;;;;;;;5066057;28;20200;-63
2021/06/18 14:40:56;;;;;;;5.43;4.93;;;;;;;;;;5069973;28;20252;-63